Soaring Guidance
Issued by NWS Reno, NV

Home | Current Version | Previous Version | Text Only | Print | Product List | Glossary On
Versions: 1 2 3 4 5 6
000
UXUS97 KREV 191341
SRGREV

SOARING FORECAST
NATIONAL WEATHER SERVICE - RENO NV
700 AM PDT THU APR 19 2018

THIS SOARING FORECAST IS FOR THE EASTERN SIERRA AND WESTERN NEVADA
WITH SPECIFIC INDICES FOR THE GREATER RENO AREA.

THIS FORECAST IS PREPARED DAILY BY 700 AM AND IS NOT UPDATED.

FOR CURRENT FLIGHT CONDITIONS...FORECASTS...AND ADVISORIES...ACCESS
YOUR LOCAL BRIEFING OUTLET OR FLIGHT SERVICE STATION.

*******************************************************************
FORECASTED LOCAL INDICES FOR RENO:        TODAY     YESTERDAY
FORECASTED MAX TEMP AT RENO (DEG F).....     54          52
FORECASTED TRIGGER TEMPERATURE (DEG F)..     39          47
   EXCEEDED YESTERDAY BY 1055 AM PDT
FORECASTED MAXIMUM ALTITUDE (FT MSL)....  17400       11500
FORECASTED SOARING INDEX (FPM)..........   1122         555
FORECASTED K-INDEX.........VALID 18Z....     26          20
FORECASTED K-INDEX.........VALID 00Z....     27          25
FORECASTED LIFTED INDEX....VALID 18Z....      1           6
FORECASTED LIFTED INDEX....VALID 00Z....      0           2

AFTERNOON WINDS ALOFT FORECAST
MSL (FT) WIND/TEMP
9000  3330/-03
10000 3330/-05
12000 3531/-10
14000 3531/-14
16000 3531/-18
18000 3632/-22
24000 0233/-35
30000 3697/-41
34000 3582/-46
39000 3571/-49

SLIDE MOUNTAIN DATA:
     DATE       TIME     TEMP  DEWPT   RH         WIND (MPH)
                        (F)   (F)           | DIR  SPEED GUST
2018-04-19    05:20      15    13     86    | 228   12   16
2018-04-19    05:00      15    12     85    | 225   13   18
2018-04-19    04:30      15    12     83    | 227   14   16
2018-04-19    04:20      15    13     84    | 225   15   17

SIERRA CREST 8700 FT DATA:
   DATE     TIME  TEMP  RH         WIND
                            DIR   SPEED   GUST
2018-04-19 0600   17   95   025      4      7
2018-04-19 0545   18   84   320      3      7
2018-04-19 0530   18   81   001      3      7
2018-04-19 0515   17   80   293      3      8

RENO TAF FORECAST:
KRNO 191120Z 1912/2012 32006KT P6SM SCT005 BKN013 BKN045
     FM191700 34008G14KT P6SM FEW015 BKN035 BKN060
     FM192100 34014G25KT P6SM VCSH SCT025 BKN040 OVC080
     FM200100 02008KT P6SM SCT015 BKN035

CARSON CITY TAF FORECAST:
KCXP 191120Z 1912/2012 33007KT P6SM SCT090
     FM191600 34008G14KT P6SM SCT035 BKN060
     FM192100 35010G22KT P6SM VCSH SCT025 BKN040 OVC080
     FM200100 35008KT P6SM SCT015 BKN035

OUTLOOK FOR THE RENO-CARSON CITY-MINDEN AREA:
.FRIDAY...SUNNY. HIGHS 63 TO 68. LIGHT WINDS.

SUNRISE AND SUNSET
APRIL 19 2018.........SUNRISE   616 AM PDT   SUNSET   741 PM PDT
APRIL 20 2018.........SUNRISE   615 AM PDT   SUNSET   742 PM PDT



USA.gov is the U.S. government's official web portal to all federal, state and local government web resources and services.